< < Back
Terminal Aerodrome Forecast


Current Version              Previous Versions:   1  2  3  4  5  6  7  8  9  

Terminal Aerodrome Forecast

382
FTUS42 KCHS 251949 AAA
TAFSAV
TAF AMD
KSAV 251949Z 2520/2618 24015G23KT P6SM SCT020 BKN035
      TEMPO 2520/2522 SCT015 BKN020
     FM252200 23012G20KT P6SM VCTS SCT020 BKN035CB
      TEMPO 2522/2601 4SM TSRA BKN015CB OVC025
     FM260200 22010KT P6SM SCT035 BKN120 WS020/25035KT
     FM260800 23009KT P6SM SCT008 BKN020 WS020/26035KT
     FM261300 27012G18KT P6SM SCT025 SCT060=



Latest METAR

233
SAUS80 KWBC 252100 RRB
MTRSAV
METAR KSAV 252053Z 23008KT 10SM SCT023 BKN028 BKN200 26/21 A2971 RMK AO2
SLP060 T02610206 58028


USA.gov is the U.S. government's official web portal to all federal, state and local government web resources and services.